Time;durP1;ratioP1;P1;durP2;ratioP2;P2;SDS_P1;SDS_P2;PMS_P1;PMS_P2;Temp;Humidity;BMP_temperature;BMP_pressure;BME280_temperature;BME280_humidity;BME280_pressure;Samples;Min_cycle;Max_cycle;Signal;HPM_P1;HPM_P2
2021/10/15 00:02:09;;;;;;;1.38;1.38;;;;;;;6.48;87.50;99250.84;4822956;29;20054;-74
2021/10/15 01:01:38;;;;;;;0.40;0.40;;;;;;;5.68;84.83;99333.09;4855694;29;20602;-76
2021/10/15 01:04:04;;;;;;;0.40;0.40;;;;;;;5.66;85.37;99351.25;4858669;29;20140;-75
2021/10/15 01:06:31;;;;;;;0.50;0.50;;;;;;;5.62;84.65;99341.13;4857814;29;20530;-76
2021/10/15 01:08:58;;;;;;;0.60;0.60;;;;;;;5.61;84.73;99352.38;4858752;29;20058;-76
2021/10/15 01:11:24;;;;;;;0.50;0.50;;;;;;;5.55;85.49;99350.06;4857931;29;20085;-77
2021/10/15 01:13:50;;;;;;;0.43;0.43;;;;;;;5.54;84.82;99362.16;4842045;29;20062;-76
2021/10/15 01:16:16;;;;;;;0.50;0.50;;;;;;;5.50;85.48;99359.75;4827928;29;20092;-76
2021/10/15 01:18:43;;;;;;;0.73;0.73;;;;;;;5.46;85.11;99358.22;4813589;29;20061;-76
2021/10/15 01:21:10;;;;;;;0.40;0.40;;;;;;;5.44;85.27;99371.22;4859329;29;20121;-76
2021/10/15 01:23:37;;;;;;;0.50;0.50;;;;;;;5.40;84.68;99368.84;4858228;29;20570;-77
2021/10/15 01:26:03;;;;;;;0.77;0.77;;;;;;;5.42;85.05;99380.78;4858403;29;20061;-75
2021/10/15 01:28:30;;;;;;;0.43;0.43;;;;;;;5.33;85.68;99382.94;4841584;29;20064;-76
2021/10/15 01:30:56;;;;;;;0.50;0.50;;;;;;;5.37;85.44;99384.47;4841931;29;20113;-75
2021/10/15 01:33:23;;;;;;;0.50;0.50;;;;;;;5.30;84.49;99370.94;4858206;29;20056;-75
2021/10/15 01:35:49;;;;;;;0.40;0.40;;;;;;;5.36;83.71;99378.47;4844742;29;20227;-75
2021/10/15 01:38:15;;;;;;;0.50;0.50;;;;;;;5.32;84.60;99383.81;4843728;29;20064;-74
2021/10/15 01:40:41;;;;;;;0.43;0.43;;;;;;;5.28;85.46;99396.03;4841338;29;20428;-75
2021/10/15 01:43:07;;;;;;;2.92;1.15;;;;;;;5.27;85.84;99409.06;4841945;29;20079;-76
2021/10/15 01:45:34;;;;;;;0.47;0.47;;;;;;;5.23;84.97;99400.56;4826320;29;20073;-76
2021/10/15 01:48:00;;;;;;;0.50;0.50;;;;;;;5.18;85.78;99405.06;4857940;29;20102;-76
2021/10/15 01:50:26;;;;;;;0.40;0.40;;;;;;;5.18;84.46;99389.56;4841357;29;20057;-76
2021/10/15 01:52:53;;;;;;;0.40;0.40;;;;;;;5.16;84.58;99412.06;4857924;29;20038;-76
2021/10/15 01:55:19;;;;;;;0.30;0.30;;;;;;;5.11;84.89;99420.00;4857826;29;20068;-76
2021/10/15 01:57:45;;;;;;;0.50;0.50;;;;;;;5.09;85.40;99419.22;4841133;29;20050;-76
2021/10/15 02:00:11;;;;;;;0.40;0.40;;;;;;;5.07;85.53;99426.19;4823765;29;20615;-76
2021/10/15 02:02:38;;;;;;;0.40;0.40;;;;;;;5.03;84.95;99423.81;4822969;29;20061;-77
2021/10/15 02:05:05;;;;;;;0.40;0.40;;;;;;;5.05;85.65;99434.91;4823292;29;20061;-77
2021/10/15 02:07:32;;;;;;;0.40;0.40;;;;;;;5.02;86.00;99430.72;4839225;29;20054;-77
2021/10/15 02:09:58;;;;;;;0.43;0.43;;;;;;;5.01;85.79;99441.09;4823369;29;20053;-77
2021/10/15 02:12:24;;;;;;;0.60;0.60;;;;;;;4.95;85.64;99411.16;4839569;29;20085;-76
2021/10/15 02:14:50;;;;;;;1.13;1.13;;;;;;;4.97;85.96;99449.91;4809991;29;20414;-75
2021/10/15 02:17:16;;;;;;;0.40;0.40;;;;;;;4.95;87.00;99454.28;4830743;29;20050;-75
2021/10/15 02:19:42;;;;;;;0.40;0.40;;;;;;;4.97;85.77;99457.66;4846650;29;20054;-75
2021/10/15 02:22:08;;;;;;;0.50;0.50;;;;;;;4.95;85.84;99455.13;4845991;29;20113;-76
2021/10/15 02:24:35;;;;;;;0.50;0.50;;;;;;;5.00;85.12;99453.22;4841434;29;20133;-75
2021/10/15 02:27:01;;;;;;;0.43;0.43;;;;;;;4.95;85.33;99465.47;4840015;29;20054;-75
2021/10/15 02:29:27;;;;;;;0.68;0.68;;;;;;;4.92;85.98;99470.75;4823464;29;20054;-75
2021/10/15 02:31:54;;;;;;;0.40;0.40;;;;;;;4.87;86.66;99469.28;4839039;29;20106;-77
2021/10/15 02:34:19;;;;;;;0.40;0.40;;;;;;;4.89;85.84;99476.06;4807713;29;20054;-76
2021/10/15 02:36:45;;;;;;;0.60;0.60;;;;;;;4.90;85.22;99431.19;4838787;29;20058;-77
2021/10/15 02:39:12;;;;;;;2.70;0.68;;;;;;;4.97;85.04;99474.03;4839074;29;20485;-77
2021/10/15 02:41:38;;;;;;;0.43;0.43;;;;;;;4.94;85.47;99455.22;4838848;29;20126;-76
2021/10/15 02:44:07;;;;;;;0.47;0.47;;;;;;;4.92;85.75;99477.69;4822931;29;20520;-77
2021/10/15 02:46:33;;;;;;;0.70;0.70;;;;;;;4.90;86.55;99498.44;4839353;29;20054;-76
2021/10/15 02:48:59;;;;;;;0.50;0.50;;;;;;;4.87;86.51;99488.22;4822474;29;20102;-77
2021/10/15 02:51:25;;;;;;;0.40;0.40;;;;;;;4.89;86.13;99489.00;4822569;29;20053;-76
2021/10/15 02:53:51;;;;;;;0.50;0.50;;;;;;;4.96;86.19;99493.03;4838545;29;20073;-76
2021/10/15 02:56:17;;;;;;;0.82;0.68;;;;;;;4.97;85.19;99494.72;4838783;29;20402;-76
2021/10/15 02:58:43;;;;;;;1.75;1.05;;;;;;;5.01;85.87;99485.94;4821926;29;20102;-76
2021/10/15 03:01:10;;;;;;;0.52;0.52;;;;;;;5.07;83.57;99490.84;4817164;29;20082;-76
2021/10/15 03:03:36;;;;;;;0.47;0.47;;;;;;;5.02;84.24;99502.28;4840320;29;20237;-76
2021/10/15 03:06:02;;;;;;;0.40;0.40;;;;;;;4.95;85.99;99504.28;4840911;29;20077;-75
2021/10/15 03:08:28;;;;;;;0.50;0.50;;;;;;;5.02;84.61;99510.06;4857076;29;20480;-76
2021/10/15 03:10:54;;;;;;;0.60;0.60;;;;;;;5.04;84.75;99514.25;4840303;29;20053;-75
2021/10/15 03:13:20;;;;;;;0.60;0.60;;;;;;;4.99;84.86;99523.94;4825576;29;20061;-78
2021/10/15 03:15:46;;;;;;;0.43;0.43;;;;;;;4.98;85.57;99504.16;4857150;29;20057;-79
2021/10/15 03:18:16;;;;;;;1.00;1.00;;;;;;;5.02;85.25;99523.84;4857091;29;20057;-75
2021/10/15 03:20:42;;;;;;;0.50;0.50;;;;;;;5.03;84.37;99540.22;4856968;29;20102;-76
2021/10/15 03:23:08;;;;;;;0.40;0.40;;;;;;;4.96;85.74;99542.19;4840449;29;20053;-76
2021/10/15 03:25:34;;;;;;;0.40;0.40;;;;;;;5.00;85.43;99530.81;4856829;29;20057;-77
2021/10/15 03:28:00;;;;;;;0.80;0.80;;;;;;;5.01;84.19;99540.25;4857081;29;20056;-76
2021/10/15 03:30:26;;;;;;;0.40;0.40;;;;;;;4.99;84.81;99531.72;4843885;29;20052;-75
2021/10/15 03:32:52;;;;;;;0.52;0.52;;;;;;;5.00;85.25;99545.50;4860287;29;20468;-76
2021/10/15 03:35:19;;;;;;;0.50;0.50;;;;;;;5.00;84.68;99533.41;4828773;29;20106;-75
2021/10/15 03:37:45;;;;;;;0.50;0.50;;;;;;;5.03;85.04;99550.56;4860038;29;20683;-75
2021/10/15 03:40:11;;;;;;;0.95;0.95;;;;;;;5.06;84.88;99555.59;4860468;29;20512;-76
2021/10/15 03:42:37;;;;;;;0.40;0.40;;;;;;;4.99;85.48;99549.81;4859953;29;20049;-76
2021/10/15 03:45:04;;;;;;;0.88;0.88;;;;;;;5.02;85.43;99554.88;4843336;29;20050;-77
2021/10/15 03:47:30;;;;;;;0.65;0.65;;;;;;;5.09;84.29;99566.69;4828345;29;20144;-77
2021/10/15 03:49:56;;;;;;;1.45;1.35;;;;;;;5.09;84.50;99571.00;4828114;29;20053;-77
2021/10/15 03:52:22;;;;;;;1.17;1.17;;;;;;;5.06;85.16;99571.97;4813182;29;20169;-78
2021/10/15 03:54:48;;;;;;;0.65;0.65;;;;;;;5.09;84.28;99539.97;4843156;29;20525;-76
2021/10/15 03:57:14;;;;;;;0.40;0.40;;;;;;;5.10;84.72;99589.06;4846241;29;20094;-78
2021/10/15 03:59:40;;;;;;;0.40;0.40;;;;;;;5.07;84.58;99594.34;4845500;29;20049;-78
2021/10/15 04:02:06;;;;;;;1.10;1.10;;;;;;;5.01;84.96;99589.41;4842635;29;20060;-77
2021/10/15 04:04:32;;;;;;;0.60;0.60;;;;;;;5.00;84.78;99590.31;4824835;29;20050;-77
2021/10/15 04:06:58;;;;;;;0.85;0.85;;;;;;;5.01;84.94;99594.56;4841061;29;20069;-77
2021/10/15 04:09:24;;;;;;;1.10;1.10;;;;;;;5.05;84.64;99596.16;4841351;29;20130;-77
2021/10/15 04:11:51;;;;;;;0.80;0.80;;;;;;;5.03;85.42;99600.53;4841012;29;20062;-78
2021/10/15 04:14:17;;;;;;;0.50;0.50;;;;;;;5.01;84.96;99594.56;4810003;29;20592;-76
2021/10/15 04:16:43;;;;;;;0.57;0.57;;;;;;;5.03;85.03;99610.03;4841227;29;20149;-77
2021/10/15 04:19:09;;;;;;;0.70;0.70;;;;;;;4.98;85.55;99579.16;4822919;29;20156;-77
2021/10/15 04:21:35;;;;;;;0.57;0.57;;;;;;;5.02;85.09;99621.28;4824868;29;20133;-78
2021/10/15 04:24:01;;;;;;;0.93;0.93;;;;;;;4.97;86.14;99636.13;4826611;29;20050;-78
2021/10/15 04:26:27;;;;;;;1.00;1.00;;;;;;;4.97;85.73;99618.88;4823129;29;20058;-78
2021/10/15 04:28:53;;;;;;;1.05;1.05;;;;;;;4.92;85.76;99636.28;4821227;29;20058;-76
2021/10/15 04:31:19;;;;;;;1.15;1.15;;;;;;;4.94;85.85;99631.88;4821356;29;20050;-76
2021/10/15 04:33:45;;;;;;;2.00;1.90;;;;;;;4.97;85.67;99647.31;4806052;29;20429;-78
2021/10/15 04:36:12;;;;;;;0.50;0.50;;;;;;;4.98;85.17;99643.81;4822522;29;20090;-76
2021/10/15 04:38:38;;;;;;;0.80;0.80;;;;;;;4.97;85.06;99644.75;4806131;29;20057;-78
2021/10/15 04:41:04;;;;;;;0.60;0.60;;;;;;;4.98;85.39;99658.50;4790924;29;20425;-77
2021/10/15 04:43:29;;;;;;;0.77;0.77;;;;;;;4.96;85.86;99665.47;4822344;29;20054;-77
2021/10/15 04:45:55;;;;;;;2.47;1.33;;;;;;;4.99;84.81;99668.81;4822286;29;20061;-78
2021/10/15 04:48:21;;;;;;;1.08;1.08;;;;;;;4.96;85.15;99668.91;4806457;29;20078;-77
2021/10/15 04:50:48;;;;;;;0.68;0.68;;;;;;;4.92;84.57;99636.28;4822248;29;20425;-76
2021/10/15 04:53:14;;;;;;;0.70;0.70;;;;;;;4.96;85.70;99666.31;4806484;29;20055;-77
2021/10/15 04:55:40;;;;;;;1.05;1.05;;;;;;;4.94;85.99;99681.03;4805283;29;20065;-77
2021/10/15 04:58:06;;;;;;;1.23;1.13;;;;;;;4.94;86.19;99686.22;4805298;29;20058;-77
2021/10/15 05:00:32;;;;;;;2.00;0.95;;;;;;;4.92;86.47;99689.75;4821842;29;20046;-78
2021/10/15 05:02:59;;;;;;;1.67;1.58;;;;;;;4.96;86.00;99681.84;4831955;29;20413;-78
2021/10/15 05:05:27;;;;;;;1.17;1.17;;;;;;;4.99;86.12;99699.00;4823986;29;20093;-77
2021/10/15 05:07:55;;;;;;;0.60;0.60;;;;;;;5.01;86.10;99703.22;4839970;29;20053;-78
2021/10/15 05:10:21;;;;;;;0.82;0.82;;;;;;;4.99;86.16;99710.19;4840378;29;20072;-77
2021/10/15 05:12:53;;;;;;;1.27;1.17;;;;;;;5.00;85.87;99709.31;4824228;29;20050;-76
2021/10/15 05:15:19;;;;;;;;;;;;;;;5.02;85.46;99709.22;4825718;29;20141;-77
2021/10/15 05:17:45;;;;;;;0.70;0.70;;;;;;;4.99;85.58;99712.78;4808626;29;20229;-78
2021/10/15 05:20:12;;;;;;;0.60;0.60;;;;;;;4.98;86.01;99713.66;4840254;29;20089;-77
2021/10/15 05:22:38;;;;;;;1.02;0.73;;;;;;;5.01;85.56;99712.69;4823825;29;20046;-76
2021/10/15 05:25:05;;;;;;;0.70;0.60;;;;;;;5.04;84.98;99722.97;4839903;29;20057;-76
2021/10/15 05:27:32;;;;;;;1.30;1.30;;;;;;;5.05;86.09;99716.88;4839674;29;20062;-76
2021/10/15 05:29:58;;;;;;;0.40;0.40;;;;;;;5.06;85.76;99716.84;4808149;29;20064;-76
2021/10/15 05:32:25;;;;;;;0.55;0.55;;;;;;;5.03;86.42;99739.38;4823385;29;20062;-75
2021/10/15 05:34:51;;;;;;;0.50;0.50;;;;;;;5.07;85.57;99734.03;4839562;29;20168;-77
2021/10/15 05:37:17;;;;;;;0.63;0.63;;;;;;;5.07;85.95;99746.97;4808442;29;20527;-77
2021/10/15 05:39:44;;;;;;;0.90;0.90;;;;;;;5.05;86.36;99742.75;4823002;29;20054;-78
2021/10/15 05:42:11;;;;;;;0.70;0.70;;;;;;;5.08;86.22;99740.06;4808964;29;20054;-78
2021/10/15 05:44:37;;;;;;;1.95;1.75;;;;;;;5.08;86.63;99743.50;4832563;29;20062;-80
2021/10/15 05:47:04;;;;;;;1.10;1.10;;;;;;;5.10;85.98;99744.31;4832294;29;20229;-80
2021/10/15 05:49:35;;;;;;;0.90;0.90;;;;;;;5.11;85.98;99743.38;4816737;29;20185;-80
2021/10/15 05:52:06;;;;;;;;;;;;;;;5.12;85.00;99739.91;4833553;29;20057;-82
2021/10/15 05:54:43;;;;;;;0.63;0.63;;;;;;;5.13;85.52;99749.38;4835657;29;20410;-79
2021/10/15 05:59:44;;;;;;;0.75;0.75;;;;;;;5.13;85.81;99746.78;4837375;29;20053;-76
2021/10/15 06:02:10;;;;;;;0.80;0.80;;;;;;;5.15;85.08;99762.25;4854692;29;20061;-77
2021/10/15 06:15:29;;;;;;;1.00;1.00;;;;;;;5.24;84.05;99772.25;4843183;29;20053;-77
2021/10/15 06:17:56;;;;;;;1.02;1.02;;;;;;;5.26;83.97;99780.84;4812128;29;20421;-79
2021/10/15 06:20:22;;;;;;;0.55;0.55;;;;;;;5.33;82.72;99778.88;4842675;29;20110;-77
2021/10/15 06:22:48;;;;;;;0.60;0.60;;;;;;;5.28;83.35;99778.19;4854966;29;20053;-77
2021/10/15 06:25:15;;;;;;;1.17;1.17;;;;;;;5.32;83.64;99790.13;4857095;29;20050;-77
2021/10/15 06:27:41;;;;;;;0.77;0.77;;;;;;;5.32;83.53;99783.22;4840769;29;20041;-78
2021/10/15 06:30:07;;;;;;;1.10;1.10;;;;;;;5.37;82.73;99789.06;4840142;29;20121;-79
2021/10/15 06:32:33;;;;;;;4.32;1.25;;;;;;;5.37;83.35;99790.78;4841043;29;20057;-82
2021/10/15 06:34:59;;;;;;;1.08;1.08;;;;;;;5.35;82.84;99793.44;4844394;29;20065;-81
2021/10/15 06:37:25;;;;;;;0.40;0.40;;;;;;;5.38;82.24;99806.28;4810352;29;20054;-82
2021/10/15 06:39:52;;;;;;;0.88;0.88;;;;;;;5.45;82.94;99812.09;4836275;29;20060;-81
2021/10/15 06:42:18;;;;;;;1.02;1.02;;;;;;;5.49;83.34;99814.53;4809625;29;20700;-82
2021/10/15 06:44:44;;;;;;;0.80;0.80;;;;;;;5.60;82.02;99811.56;4807811;29;20050;-81
2021/10/15 06:47:10;;;;;;;1.85;1.33;;;;;;;5.76;81.91;99815.28;4829311;29;20058;-83
2021/10/15 06:49:36;;;;;;;0.95;0.95;;;;;;;5.75;81.30;99811.88;4824367;29;20064;-80
2021/10/15 06:52:03;;;;;;;0.70;0.70;;;;;;;5.87;79.63;99814.94;4848491;29;20136;-80
2021/10/15 06:54:35;;;;;;;1.55;1.55;;;;;;;5.87;80.88;99815.78;4845121;29;20403;-81
2021/10/15 06:57:02;;;;;;;0.60;0.60;;;;;;;5.90;80.54;99820.00;4831358;29;20061;-81
2021/10/15 06:59:28;;;;;;;0.52;0.52;;;;;;;6.08;81.04;99821.94;4876732;29;20060;-82
2021/10/15 07:01:55;;;;;;;1.63;1.55;;;;;;;6.13;80.58;99814.81;4854674;29;20057;-79
2021/10/15 07:04:21;;;;;;;0.85;0.85;;;;;;;6.03;79.36;99813.47;4849782;29;20050;-79
2021/10/15 07:06:48;;;;;;;0.77;0.77;;;;;;;6.03;79.51;99818.66;4842422;29;20064;-80
2021/10/15 07:09:14;;;;;;;1.95;1.38;;;;;;;6.08;79.54;99822.78;4826510;29;20194;-78
2021/10/15 07:11:40;;;;;;;0.73;0.73;;;;;;;6.16;79.63;99822.47;4825523;29;20054;-77
2021/10/15 07:14:07;;;;;;;0.55;0.55;;;;;;;6.09;78.76;99816.69;4845522;29;20054;-79
2021/10/15 07:16:33;;;;;;;0.50;0.50;;;;;;;6.06;78.91;99827.16;4839819;29;20089;-78
2021/10/15 07:18:59;;;;;;;0.80;0.80;;;;;;;6.09;78.89;99846.91;4838249;29;20048;-76
2021/10/15 07:21:25;;;;;;;0.50;0.50;;;;;;;6.03;78.25;99842.81;4840010;29;20049;-80
2021/10/15 07:23:52;;;;;;;0.65;0.65;;;;;;;6.07;79.50;99859.09;4840038;29;20046;-80
2021/10/15 07:26:18;;;;;;;0.93;0.93;;;;;;;6.11;79.67;99851.19;4839958;29;20058;-78
2021/10/15 07:28:44;;;;;;;1.10;1.10;;;;;;;6.21;79.64;99856.84;4821090;29;20057;-82
2021/10/15 07:31:11;;;;;;;1.35;1.33;;;;;;;6.11;79.57;99861.53;4839879;29;20061;-76
2021/10/15 07:33:37;;;;;;;1.20;1.20;;;;;;;6.15;78.76;99857.09;4847954;29;20070;-76
2021/10/15 07:36:03;;;;;;;0.60;0.60;;;;;;;6.14;78.03;99865.75;4839702;29;20081;-76
2021/10/15 07:38:30;;;;;;;0.93;0.93;;;;;;;6.19;77.41;99867.28;4843626;29;20053;-77
2021/10/15 07:40:56;;;;;;;1.45;1.45;;;;;;;6.34;78.08;99876.25;4839591;29;20563;-77
2021/10/15 07:43:22;;;;;;;1.45;1.45;;;;;;;6.42;77.75;99873.34;4838142;29;20058;-76
2021/10/15 07:45:48;;;;;;;0.60;0.60;;;;;;;6.39;76.66;99868.28;4831057;29;20058;-75
2021/10/15 07:48:14;;;;;;;1.02;1.02;;;;;;;6.59;76.14;99870.97;4836455;29;20521;-76
2021/10/15 07:50:40;;;;;;;0.55;0.55;;;;;;;6.75;75.53;99875.50;4836321;29;20046;-77
2021/10/15 07:53:06;;;;;;;1.40;1.33;;;;;;;6.95;75.86;99882.50;4836978;29;20133;-78
2021/10/15 07:55:32;;;;;;;1.02;1.02;;;;;;;7.01;74.97;99887.44;4837821;29;20061;-76
2021/10/15 07:57:59;;;;;;;0.88;0.88;;;;;;;7.19;75.07;99893.66;4838146;29;20054;-78
2021/10/15 08:00:25;;;;;;;1.30;1.30;;;;;;;7.20;74.64;99884.94;4837605;29;20181;-77
2021/10/15 08:02:53;;;;;;;1.50;1.45;;;;;;;7.16;74.77;99886.84;4833382;29;20189;-78
2021/10/15 08:05:19;;;;;;;1.23;1.23;;;;;;;7.09;75.44;99890.59;4821807;29;20137;-77
2021/10/15 08:07:46;;;;;;;0.80;0.80;;;;;;;7.13;75.23;99899.91;4837713;29;20050;-77
2021/10/15 08:10:12;;;;;;;0.85;0.85;;;;;;;7.09;75.69;99894.94;4837970;29;20058;-76
2021/10/15 08:12:38;;;;;;;0.82;0.82;;;;;;;7.25;74.08;99906.38;4838279;29;20092;-76
2021/10/15 08:15:10;;;;;;;1.50;1.50;;;;;;;7.13;74.10;99912.91;4821521;29;20054;-76
2021/10/15 08:17:36;;;;;;;1.25;1.25;;;;;;;7.12;72.75;99911.22;4808125;29;20118;-76
2021/10/15 08:20:02;;;;;;;1.10;1.10;;;;;;;7.22;73.23;99909.13;4840262;29;20053;-77
2021/10/15 08:22:29;;;;;;;0.68;0.68;;;;;;;7.17;73.11;99911.88;4841581;29;20061;-78
2021/10/15 08:24:55;;;;;;;1.27;1.27;;;;;;;7.29;73.24;99908.81;4840871;29;20046;-79
2021/10/15 08:27:21;;;;;;;1.02;1.02;;;;;;;7.49;72.73;99908.00;4841154;29;20517;-78
2021/10/15 08:29:47;;;;;;;0.70;0.70;;;;;;;7.44;73.22;99907.31;4840689;29;20413;-78
2021/10/15 08:32:13;;;;;;;0.40;0.40;;;;;;;7.40;71.58;99915.28;4841173;29;20073;-77
2021/10/15 08:34:40;;;;;;;5.60;1.75;;;;;;;7.57;71.92;99920.66;4841812;29;20123;-77
2021/10/15 08:37:10;;;;;;;5.60;2.55;;;;;;;7.61;71.29;99924.81;4824405;29;20050;-78
2021/10/15 08:40:01;;;;;;;0.75;0.75;;;;;;;7.64;71.25;99920.34;4841127;29;20057;-79
2021/10/15 08:42:28;;;;;;;0.52;0.52;;;;;;;7.79;71.39;99924.03;4843092;29;20062;-77
2021/10/15 08:44:54;;;;;;;0.90;0.90;;;;;;;7.96;70.78;99918.97;4824738;29;20050;-78
2021/10/15 08:47:20;;;;;;;0.88;0.88;;;;;;;7.88;68.76;99928.84;4809976;29;20053;-77
2021/10/15 08:49:46;;;;;;;0.75;0.75;;;;;;;7.72;69.63;99933.00;4840309;29;20536;-77
2021/10/15 08:52:13;;;;;;;0.70;0.70;;;;;;;7.85;68.71;99929.00;4824410;29;20096;-77
2021/10/15 08:54:43;;;;;;;0.50;0.50;;;;;;;8.04;67.90;99926.44;4825561;29;20049;-77
2021/10/15 08:57:10;;;;;;;0.88;0.88;;;;;;;7.99;69.02;99931.81;4824588;29;20123;-77
2021/10/15 08:59:47;;;;;;;0.65;0.65;;;;;;;7.91;69.44;99931.31;4840651;29;20057;-76
2021/10/15 09:02:18;;;;;;;0.70;0.70;;;;;;;7.84;68.54;99927.28;4858572;29;20053;-77
2021/10/15 09:04:51;;;;;;;0.85;0.85;;;;;;;7.71;67.44;99941.72;4858778;29;20563;-76
2021/10/15 09:07:20;;;;;;;1.02;1.02;;;;;;;7.76;68.82;99944.94;4858502;29;20469;-77
2021/10/15 09:10:24;;;;;;;1.02;1.02;;;;;;;7.71;69.33;99931.31;4859051;29;20049;-77
2021/10/15 09:12:56;;;;;;;0.95;0.95;;;;;;;7.62;68.36;99942.09;4845999;29;20073;-77
2021/10/15 09:15:33;;;;;;;0.52;0.52;;;;;;;7.71;70.05;99939.09;4823530;29;20182;-76
2021/10/15 09:18:08;;;;;;;0.80;0.80;;;;;;;7.66;69.35;99943.63;4808592;29;20065;-76
2021/10/15 09:20:35;;;;;;;0.77;0.77;;;;;;;7.74;69.48;99952.81;4810088;29;20057;-78
2021/10/15 09:23:01;;;;;;;0.90;0.90;;;;;;;7.81;68.96;99956.00;4839613;29;20046;-76
2021/10/15 09:25:35;;;;;;;0.82;0.82;;;;;;;7.80;70.10;99957.75;4839800;29;20069;-78
2021/10/15 09:28:01;;;;;;;0.40;0.40;;;;;;;7.74;69.93;99951.97;4810702;29;20552;-77
2021/10/15 09:30:30;;;;;;;0.80;0.77;;;;;;;7.55;70.04;99951.03;4843335;29;20058;-78
2021/10/15 09:32:58;;;;;;;0.98;0.98;;;;;;;7.55;71.12;99953.66;4795403;29;20071;-76
2021/10/15 09:35:33;;;;;;;1.20;1.20;;;;;;;7.57;69.74;99955.25;4839901;29;20517;-77
2021/10/15 09:38:05;;;;;;;0.75;0.75;;;;;;;7.51;70.39;99960.72;4839779;29;20145;-80
2021/10/15 09:40:44;;;;;;;0.77;0.77;;;;;;;7.52;70.56;99961.56;4840145;29;20115;-78
2021/10/15 09:43:11;;;;;;;0.50;0.50;;;;;;;7.50;70.71;99953.81;4839857;29;20398;-78
2021/10/15 09:45:47;;;;;;;1.55;1.50;;;;;;;7.45;71.08;99960.13;4808727;29;20145;-78
2021/10/15 09:48:27;;;;;;;0.75;0.75;;;;;;;7.49;70.39;99961.69;4839882;29;20042;-78
2021/10/15 09:51:10;;;;;;;0.95;0.95;;;;;;;7.58;70.86;99963.91;4823287;29;20049;-77
2021/10/15 09:53:37;;;;;;;1.15;1.15;;;;;;;7.70;70.97;99966.00;4839451;29;20420;-77
2021/10/15 09:56:03;;;;;;;0.85;0.85;;;;;;;7.77;70.60;99973.47;4822808;29;20434;-77
2021/10/15 09:58:30;;;;;;;1.35;1.35;;;;;;;8.02;70.56;99970.69;4839398;29;20054;-77
2021/10/15 10:00:55;;;;;;;1.25;1.25;;;;;;;8.15;70.49;99969.25;4839367;29;20068;-79
2021/10/15 10:03:23;;;;;;;0.70;0.70;;;;;;;8.17;71.28;99977.84;4808286;29;20056;-80
2021/10/15 10:05:49;;;;;;;1.27;1.25;;;;;;;8.07;69.97;99979.16;4839204;29;20054;-79
2021/10/15 10:08:16;;;;;;;1.38;1.27;;;;;;;7.82;70.83;99974.13;4823298;29;20061;-79
2021/10/15 10:10:43;;;;;;;1.38;1.38;;;;;;;7.88;71.02;99963.47;4823187;29;20049;-80
2021/10/15 10:13:10;;;;;;;1.00;0.95;;;;;;;7.89;71.50;99972.09;4823077;29;20202;-78
2021/10/15 10:16:04;;;;;;;0.57;0.57;;;;;;;7.82;72.39;99975.88;4838484;29;20624;-80
2021/10/15 10:18:32;;;;;;;1.45;1.35;;;;;;;7.94;72.37;99975.38;4820619;29;20058;-82
2021/10/15 10:21:18;;;;;;;2.50;2.30;;;;;;;8.07;72.43;99968.75;4828683;29;20050;-85
2021/10/15 10:24:05;;;;;;;1.17;1.17;;;;;;;8.23;72.80;99982.78;4800619;29;20428;-80
2021/10/15 10:26:44;;;;;;;1.33;1.27;;;;;;;8.03;71.77;99972.38;4831030;29;20065;-79
2021/10/15 10:29:11;;;;;;;0.88;0.88;;;;;;;8.06;71.62;99974.00;4820947;29;20149;-76
2021/10/15 10:31:36;;;;;;;0.60;0.60;;;;;;;8.17;70.51;99984.81;4835901;29;20735;-79
2021/10/15 10:34:04;;;;;;;0.95;0.95;;;;;;;8.27;72.18;99980.91;4768026;29;20057;-75
2021/10/15 10:36:32;;;;;;;1.17;1.17;;;;;;;8.26;70.60;99977.44;4822162;29;20053;-78
2021/10/15 10:39:20;;;;;;;0.80;0.80;;;;;;;8.21;70.74;99984.59;4821536;29;20208;-76
2021/10/15 10:42:10;;;;;;;0.63;0.63;;;;;;;8.22;70.25;99980.22;4839543;29;20148;-76
2021/10/15 10:44:56;;;;;;;0.90;0.90;;;;;;;8.24;70.25;99968.88;4863092;29;20084;-80
2021/10/15 10:47:26;;;;;;;0.40;0.40;;;;;;;8.25;70.07;99975.75;4826392;29;20045;-76
2021/10/15 10:50:05;;;;;;;0.65;0.65;;;;;;;8.52;70.26;99985.88;4840449;29;20065;-77
2021/10/15 10:52:35;;;;;;;0.50;0.50;;;;;;;8.40;69.54;99976.88;4815339;29;20060;-78
2021/10/15 10:55:02;;;;;;;0.60;0.60;;;;;;;8.41;69.11;99977.72;4801210;29;20825;-78
2021/10/15 10:57:33;;;;;;;1.13;1.13;;;;;;;8.42;69.16;99982.00;4832181;29;20062;-77
2021/10/15 11:00:18;;;;;;;0.50;0.50;;;;;;;8.25;69.97;99974.91;4811185;29;20073;-77
2021/10/15 11:02:51;;;;;;;0.68;0.68;;;;;;;8.48;69.18;99976.53;4827138;29;20582;-78
2021/10/15 11:05:30;;;;;;;0.73;0.73;;;;;;;8.26;67.19;99976.59;4823645;29;20069;-79
2021/10/15 11:08:24;;;;;;;0.70;0.70;;;;;;;8.26;67.73;99985.25;4841531;29;20065;-79
2021/10/15 11:10:51;;;;;;;1.45;1.00;;;;;;;8.17;67.04;99979.59;4807224;29;20050;-79
2021/10/15 11:13:37;;;;;;;1.13;1.13;;;;;;;8.16;68.15;99977.91;4831561;29;20080;-80
2021/10/15 11:16:21;;;;;;;1.70;0.80;;;;;;;8.21;68.32;99981.97;4805980;29;20107;-75
2021/10/15 11:18:47;;;;;;;0.85;0.85;;;;;;;8.32;67.18;99994.56;4807292;29;20103;-76
2021/10/15 11:21:13;;;;;;;1.02;1.02;;;;;;;8.36;66.17;99989.16;4837760;29;20520;-78
2021/10/15 11:23:40;;;;;;;0.80;0.80;;;;;;;8.30;67.33;99989.44;4820396;29;20102;-76
2021/10/15 11:26:06;;;;;;;1.27;0.75;;;;;;;8.22;66.21;99996.69;4798285;29;20062;-76
2021/10/15 11:28:33;;;;;;;1.15;1.15;;;;;;;8.34;65.33;100000.56;4838581;29;20517;-79
2021/10/15 11:30:59;;;;;;;1.05;1.05;;;;;;;8.48;65.54;99997.31;4838663;29;20057;-77
2021/10/15 11:33:26;;;;;;;1.23;1.23;;;;;;;8.46;65.14;99993.97;4818645;29;20049;-77
2021/10/15 11:35:53;;;;;;;1.30;1.30;;;;;;;8.42;64.58;99995.00;4798495;29;20791;-78
2021/10/15 11:38:25;;;;;;;2.08;1.73;;;;;;;8.35;64.72;100003.06;4822394;29;20520;-80
2021/10/15 11:41:09;;;;;;;0.90;0.90;;;;;;;8.48;64.81;99994.72;4792352;29;20058;-76
2021/10/15 11:43:37;;;;;;;10.40;1.15;;;;;;;8.46;64.43;99999.16;4825654;29;20057;-75
2021/10/15 11:46:04;;;;;;;1.02;1.02;;;;;;;8.40;62.85;99995.09;4839235;29;20045;-76
2021/10/15 11:48:37;;;;;;;0.77;0.77;;;;;;;8.35;63.27;99992.66;4856244;29;20058;-76
2021/10/15 11:51:10;;;;;;;0.50;0.50;;;;;;;8.42;60.25;99987.19;4843336;29;20049;-74
2021/10/15 11:53:42;;;;;;;1.00;1.00;;;;;;;8.53;59.96;99992.78;4827846;29;20057;-76
2021/10/15 11:56:16;;;;;;;1.27;1.17;;;;;;;8.48;61.38;99992.13;4858859;29;20057;-77
2021/10/15 11:58:49;;;;;;;0.70;0.70;;;;;;;8.50;58.56;99990.31;4828576;29;20619;-79
2021/10/15 12:01:23;;;;;;;0.80;0.80;;;;;;;8.42;56.41;99985.44;4849361;29;20053;-75
2021/10/15 12:03:50;;;;;;;0.63;0.63;;;;;;;8.38;57.77;100002.09;4852746;29;20057;-78
2021/10/15 12:06:18;;;;;;;0.98;0.98;;;;;;;8.36;58.08;100004.78;4838783;29;20268;-77
2021/10/15 12:08:46;;;;;;;0.60;0.60;;;;;;;8.35;58.41;100002.22;4837233;29;20524;-77
2021/10/15 12:11:40;;;;;;;1.20;1.13;;;;;;;8.35;58.36;100008.28;4840275;29;20065;-78
2021/10/15 12:14:23;;;;;;;1.35;0.90;;;;;;;8.47;57.90;100006.91;4840892;29;20125;-78
2021/10/15 12:16:49;;;;;;;0.45;0.45;;;;;;;8.50;56.74;100003.34;4808973;29;20118;-78
2021/10/15 12:19:17;;;;;;;0.50;0.50;;;;;;;8.47;57.23;100011.28;4849129;29;20536;-77
2021/10/15 12:21:45;;;;;;;0.88;0.88;;;;;;;8.51;55.56;99989.41;4858242;29;20060;-78
2021/10/15 12:24:41;;;;;;;0.40;0.40;;;;;;;8.62;54.11;100000.19;4814449;29;20085;-77
2021/10/15 12:27:14;;;;;;;0.40;0.40;;;;;;;8.62;54.76;100002.78;4837775;29;20678;-77
2021/10/15 12:29:48;;;;;;;0.98;0.98;;;;;;;8.65;54.03;99993.06;4839216;29;20057;-79
2021/10/15 12:32:18;;;;;;;0.68;0.68;;;;;;;8.51;55.55;99995.44;4840324;29;20579;-79
2021/10/15 12:35:08;;;;;;;0.57;0.57;;;;;;;8.59;56.31;100013.31;4841160;29;20543;-76
2021/10/15 12:37:43;;;;;;;0.90;0.90;;;;;;;8.74;55.77;100000.47;4838905;29;20057;-76
2021/10/15 12:40:28;;;;;;;0.60;0.60;;;;;;;8.69;56.20;100002.44;4837034;29;20525;-76
2021/10/15 12:43:02;;;;;;;0.57;0.57;;;;;;;8.78;56.87;100006.38;4841248;29;20528;-78
2021/10/15 12:45:47;;;;;;;0.68;0.68;;;;;;;8.93;56.25;100004.84;4823576;29;20560;-77
2021/10/15 12:48:21;;;;;;;0.82;0.82;;;;;;;8.77;56.36;99994.28;4840235;29;20551;-79
2021/10/15 12:51:34;;;;;;;0.95;0.95;;;;;;;8.63;57.16;100009.69;4839038;29;20091;-79
2021/10/15 12:54:01;;;;;;;0.68;0.68;;;;;;;8.58;57.59;100007.28;4785965;29;20061;-81
2021/10/15 12:56:28;;;;;;;0.60;0.60;;;;;;;8.49;58.08;100009.44;4788283;29;20061;-78
2021/10/15 12:58:58;;;;;;;1.55;0.70;;;;;;;8.51;58.81;100010.22;4802841;29;20054;-76
2021/10/15 13:01:31;;;;;;;0.50;0.50;;;;;;;8.51;58.14;100018.03;4828948;29;20065;-80